Time;durP1;ratioP1;P1;durP2;ratioP2;P2;SDS_P1;SDS_P2;PMS_P1;PMS_P2;Temp;Humidity;BMP_temperature;BMP_pressure;BME280_temperature;BME280_humidity;BME280_pressure;Samples;Min_cycle;Max_cycle;Signal;HPM_P1;HPM_P2
2021/06/14 00:00:31;;;;;;;2.80;2.55;;;;;;;21.77;57.78;99157.89;1771608;79;21032;-69
2021/06/14 00:02:58;;;;;;;3.00;2.47;;;;;;;21.76;57.93;99161.65;1831028;77;21067;-69
2021/06/14 00:05:39;;;;;;;2.83;2.40;;;;;;;21.75;57.93;99160.55;1828783;77;20963;-69
2021/06/14 00:08:08;;;;;;;3.83;1.90;;;;;;;21.73;58.14;99152.72;1802349;78;21031;-69
2021/06/14 00:10:36;;;;;;;4.00;2.50;;;;;;;21.69;58.25;99154.30;1810222;77;21030;-69
2021/06/14 00:13:04;;;;;;;3.37;2.30;;;;;;;21.69;58.56;99154.30;1791726;78;21449;-71
2021/06/14 00:15:32;;;;;;;2.95;2.65;;;;;;;21.70;58.32;99159.16;1803738;77;21063;-70
2021/06/14 00:18:00;;;;;;;2.77;2.58;;;;;;;21.69;58.17;99154.30;1812809;77;20957;-71
2021/06/14 00:20:30;;;;;;;3.50;2.50;;;;;;;21.69;58.11;99150.25;1814123;77;21540;-71
2021/06/14 00:22:57;;;;;;;2.40;2.20;;;;;;;21.67;57.76;99159.15;1801523;77;21129;-69
2021/06/14 00:25:27;;;;;;;2.98;2.30;;;;;;;21.67;58.20;99161.02;1819514;77;21013;-70
2021/06/14 00:27:53;;;;;;;2.72;2.20;;;;;;;21.67;58.00;99168.61;1819275;77;21076;-70
2021/06/14 00:30:31;;;;;;;2.55;2.20;;;;;;;21.66;57.69;99161.55;1804394;77;21001;-70
2021/06/14 00:32:58;;;;;;;2.35;2.05;;;;;;;21.66;57.57;99161.55;1793396;78;21036;-70
2021/06/14 00:35:24;;;;;;;2.15;1.98;;;;;;;21.65;57.39;99159.10;1800979;77;21143;-70
2021/06/14 00:37:52;;;;;;;3.52;2.15;;;;;;;21.63;57.47;99163.41;1806191;77;21056;-69
2021/06/14 00:40:19;;;;;;;3.47;2.12;;;;;;;21.62;57.33;99163.14;1820672;77;21020;-70
2021/06/14 00:42:46;;;;;;;4.65;2.22;;;;;;;21.62;57.26;99159.09;1814128;77;21039;-69
2021/06/14 00:45:16;;;;;;;3.15;2.20;;;;;;;21.63;56.99;99157.19;1797212;77;21508;-70
2021/06/14 00:47:44;;;;;;;2.50;2.30;;;;;;;21.62;56.84;99157.73;1806774;77;21869;-70
2021/06/14 00:50:13;;;;;;;2.75;2.20;;;;;;;21.61;56.89;99157.44;1800768;77;21017;-68
2021/06/14 00:52:46;;;;;;;2.45;2.00;;;;;;;21.60;56.97;99155.28;1810287;77;21025;-70
2021/06/14 00:55:16;;;;;;;2.15;1.95;;;;;;;21.59;56.90;99153.66;1820511;77;21074;-69
2021/06/14 00:57:42;;;;;;;4.10;2.10;;;;;;;21.58;56.67;99150.66;1800125;77;21484;-69
2021/06/14 01:00:10;;;;;;;2.67;2.10;;;;;;;21.58;56.53;99156.07;1804381;77;21124;-69
2021/06/14 01:02:39;;;;;;;3.37;2.20;;;;;;;21.56;56.65;99165.52;1797837;77;21575;-69
2021/06/14 01:05:10;;;;;;;3.25;2.10;;;;;;;21.55;56.71;99157.92;1790957;77;21010;-69
2021/06/14 01:07:38;;;;;;;2.37;1.90;;;;;;;21.56;56.61;99163.62;1806371;77;21065;-69
2021/06/14 01:10:06;;;;;;;2.77;2.02;;;;;;;21.55;56.93;99159.81;1789180;79;21061;-68
2021/06/14 01:12:40;;;;;;;3.15;2.17;;;;;;;21.56;56.86;99160.11;1804630;77;21259;-70
2021/06/14 01:15:11;;;;;;;2.33;2.00;;;;;;;21.52;56.74;99163.05;1796806;78;21041;-68
2021/06/14 01:17:52;;;;;;;3.55;2.10;;;;;;;21.58;56.84;99163.37;1807671;77;21544;-69
2021/06/14 01:21:00;;;;;;;3.12;1.95;;;;;;;21.58;56.68;99156.62;1793434;77;21103;-69
2021/06/14 01:23:50;;;;;;;4.78;2.35;;;;;;;21.56;56.03;99161.46;1801908;77;21040;-69
2021/06/14 01:26:20;;;;;;;2.75;2.40;;;;;;;21.52;55.93;99161.69;1798836;77;21140;-69
2021/06/14 01:28:58;;;;;;;2.80;2.10;;;;;;;21.48;55.90;99154.63;1801906;77;22212;-69
2021/06/14 01:31:26;;;;;;;4.90;2.27;;;;;;;21.48;55.94;99156.48;1743581;81;21054;-70
2021/06/14 01:33:55;;;;;;;3.27;2.50;;;;;;;21.47;55.91;99161.08;1741336;80;21486;-70
2021/06/14 01:36:34;;;;;;;2.83;1.87;;;;;;;21.46;55.65;99161.33;1754316;80;21143;-69
2021/06/14 01:39:01;;;;;;;2.75;2.45;;;;;;;21.46;55.72;99160.82;1792446;78;21100;-69
2021/06/14 01:41:29;;;;;;;2.58;2.30;;;;;;;21.45;55.93;99169.17;1801992;79;21041;-72
2021/06/14 01:43:58;;;;;;;2.40;2.20;;;;;;;21.45;55.80;99175.38;1796598;77;21018;-69
2021/06/14 01:46:28;;;;;;;3.72;2.10;;;;;;;21.46;55.97;99181.08;1814429;77;21069;-69
2021/06/14 01:48:57;;;;;;;3.35;2.25;;;;;;;21.45;55.92;99173.23;1809492;77;21073;-70
2021/06/14 01:51:27;;;;;;;3.83;2.50;;;;;;;21.46;55.95;99181.59;1798528;77;21035;-70
2021/06/14 01:54:05;;;;;;;2.50;2.25;;;;;;;21.45;55.98;99177.28;1814541;77;21485;-69
2021/06/14 01:56:41;;;;;;;3.42;2.40;;;;;;;21.46;56.27;99182.44;1796481;77;21044;-69
2021/06/14 01:59:15;;;;;;;3.80;2.87;;;;;;;21.44;55.97;99179.17;1802802;77;21018;-69
2021/06/14 02:01:46;;;;;;;2.67;2.00;;;;;;;21.43;56.04;99188.84;1791243;77;21061;-70
2021/06/14 02:04:12;;;;;;;3.35;2.50;;;;;;;21.43;55.93;99201.81;1791932;77;21823;-69
2021/06/14 02:06:48;;;;;;;4.50;2.20;;;;;;;21.43;56.05;99201.81;1792370;77;21026;-70
2021/06/14 02:09:20;;;;;;;3.83;2.05;;;;;;;21.43;56.42;99201.00;1804330;79;21014;-69
2021/06/14 02:11:51;;;;;;;3.15;2.10;;;;;;;21.44;56.32;99183.73;1793552;77;21057;-70
2021/06/14 02:14:24;;;;;;;2.92;2.50;;;;;;;21.44;56.12;99190.49;1775920;77;21160;-70
2021/06/14 02:16:52;;;;;;;3.00;2.22;;;;;;;21.43;56.03;99196.95;1792660;77;21795;-69
2021/06/14 02:19:20;;;;;;;4.42;2.37;;;;;;;21.43;56.07;99196.41;1789413;77;21021;-70
2021/06/14 02:21:47;;;;;;;2.75;2.20;;;;;;;21.43;56.18;99203.16;1808570;77;21541;-70
2021/06/14 02:24:15;;;;;;;2.47;2.10;;;;;;;21.43;56.11;99198.30;1810687;77;21037;-71
2021/06/14 02:26:43;;;;;;;3.30;2.25;;;;;;;21.42;56.18;99200.16;1810935;77;21046;-70
2021/06/14 02:29:10;;;;;;;2.27;2.17;;;;;;;21.43;56.00;99201.81;1804261;77;21130;-70
2021/06/14 02:31:37;;;;;;;2.47;2.27;;;;;;;21.43;55.77;99202.36;1788212;79;21033;-70
2021/06/14 02:34:05;;;;;;;2.98;2.15;;;;;;;21.42;55.63;99210.97;1805433;77;21560;-69
2021/06/14 02:36:33;;;;;;;3.30;2.45;;;;;;;21.43;55.94;99209.92;1801475;77;21450;-70
2021/06/14 02:39:03;;;;;;;2.17;2.08;;;;;;;21.44;55.93;99214.81;1790040;77;21018;-69
2021/06/14 02:41:30;;;;;;;3.60;2.20;;;;;;;21.46;56.03;99214.02;1808406;77;21113;-69
2021/06/14 02:44:04;;;;;;;3.08;2.25;;;;;;;21.44;55.73;99208.89;1803723;77;21522;-70
2021/06/14 02:46:27;;;;;;;2.55;2.25;;;;;;;21.46;55.89;99215.37;1793022;78;21085;-69
2021/06/14 02:48:56;;;;;;;2.87;2.30;;;;;;;21.46;55.89;99217.56;1798908;77;22047;-69
2021/06/14 02:51:22;;;;;;;2.95;2.30;;;;;;;21.46;55.79;99220.78;1801388;79;21053;-69
2021/06/14 02:54:03;;;;;;;3.65;3.17;;;;;;;21.45;55.51;99221.32;1795714;77;21093;-69
2021/06/14 02:56:19;;;;;;;7.65;6.28;;;;;;;21.45;55.65;99221.32;1768276;79;21040;-70
2021/06/14 02:58:48;;;;;;;9.78;7.45;;;;;;;21.44;55.61;99226.45;1789189;77;21486;-69
2021/06/14 03:01:16;;;;;;;8.18;6.25;;;;;;;21.43;55.67;99222.08;1796911;79;21001;-70
2021/06/14 03:03:42;;;;;;;5.45;4.95;;;;;;;21.43;55.81;99227.48;1797673;77;21004;-69
2021/06/14 03:06:12;;;;;;;4.70;3.72;;;;;;;21.43;55.56;99229.38;1814947;77;21106;-70
2021/06/14 03:08:39;;;;;;;4.55;3.02;;;;;;;21.42;55.61;99233.94;1811871;78;21267;-71
2021/06/14 03:11:05;;;;;;;3.40;2.65;;;;;;;21.41;55.38;99238.53;1792210;78;21021;-70
2021/06/14 03:13:34;;;;;;;3.25;2.77;;;;;;;21.41;55.54;99241.23;1806561;77;21042;-71
2021/06/14 03:16:02;;;;;;;2.75;2.52;;;;;;;21.42;55.75;99247.45;1830250;77;21016;-71
2021/06/14 03:18:30;;;;;;;2.55;2.33;;;;;;;21.43;55.85;99241.53;1818924;77;21122;-71
2021/06/14 03:20:58;;;;;;;3.87;2.60;;;;;;;21.43;55.77;99238.83;1805744;77;21128;-70
2021/06/14 03:23:24;;;;;;;3.15;2.52;;;;;;;21.44;55.64;99237.78;1803577;77;21025;-72
2021/06/14 03:25:54;;;;;;;7.20;6.03;;;;;;;21.43;55.83;99234.78;1820084;77;21006;-71
2021/06/14 03:28:20;;;;;;;7.37;6.60;;;;;;;21.45;55.99;99237.53;1781433;78;21935;-70
2021/06/14 03:30:47;;;;;;;5.90;4.90;;;;;;;21.47;55.86;99242.69;1813269;78;21130;-70
2021/06/14 03:33:17;;;;;;;3.92;3.40;;;;;;;21.47;55.98;99242.15;1800218;77;21017;-69
2021/06/14 03:35:43;;;;;;;3.37;3.08;;;;;;;21.48;56.16;99238.39;1813832;77;21146;-69
2021/06/14 03:38:10;;;;;;;4.33;3.17;;;;;;;21.50;55.86;99242.17;1812237;77;21073;-70
2021/06/14 03:40:37;;;;;;;4.12;2.90;;;;;;;21.50;55.93;99240.31;1823781;77;21458;-70
2021/06/14 03:43:05;;;;;;;5.12;2.77;;;;;;;21.50;55.83;99241.66;1810490;77;21266;-70
2021/06/14 03:45:32;;;;;;;3.35;2.45;;;;;;;21.50;55.86;99240.31;1812731;77;20998;-68
2021/06/14 03:48:00;;;;;;;3.45;2.77;;;;;;;21.51;55.79;99242.47;1831268;77;21045;-69
2021/06/14 03:50:26;;;;;;;2.80;2.60;;;;;;;21.52;56.00;99248.98;1806205;77;20990;-70
2021/06/14 03:52:52;;;;;;;3.12;2.37;;;;;;;21.53;55.96;99253.84;1827199;77;21099;-70
2021/06/14 03:55:19;;;;;;;4.60;3.33;;;;;;;21.55;56.14;99247.10;1814357;77;22631;-71
2021/06/14 03:57:46;;;;;;;5.75;2.98;;;;;;;21.57;55.93;99256.31;1807510;77;21100;-69
2021/06/14 04:00:15;;;;;;;3.10;2.80;;;;;;;21.57;55.96;99245.50;1810673;77;21006;-71
2021/06/14 04:02:43;;;;;;;3.47;2.72;;;;;;;21.58;56.13;99245.26;1819537;77;20986;-69
2021/06/14 04:05:13;;;;;;;2.98;2.70;;;;;;;21.59;56.15;99244.72;1815983;78;21088;-70
2021/06/14 04:07:48;;;;;;;3.25;2.95;;;;;;;21.59;55.89;99245.55;1800001;78;21148;-70
2021/06/14 04:10:14;;;;;;;3.37;2.58;;;;;;;21.60;56.26;99246.36;1803757;77;21084;-69
2021/06/14 04:12:41;;;;;;;4.90;2.60;;;;;;;21.62;56.19;99247.47;1816999;78;21001;-70
2021/06/14 04:15:09;;;;;;;3.22;2.62;;;;;;;21.63;56.35;99253.14;1811595;78;21014;-69
2021/06/14 04:17:36;;;;;;;3.02;2.72;;;;;;;21.66;56.15;99255.35;1807604;77;21049;-69
2021/06/14 04:20:06;;;;;;;2.40;2.20;;;;;;;21.67;56.27;99253.75;1809744;78;21080;-70
2021/06/14 04:22:32;;;;;;;3.12;2.80;;;;;;;21.69;55.86;99258.37;1811504;77;21041;-70
2021/06/14 04:24:59;;;;;;;3.22;2.92;;;;;;;21.70;55.85;99264.04;1825764;77;21053;-69
2021/06/14 04:27:25;;;;;;;4.15;2.60;;;;;;;21.73;55.83;99265.41;1833114;77;20961;-71
2021/06/14 04:29:52;;;;;;;2.72;2.52;;;;;;;21.75;56.25;99268.67;1817552;77;20997;-71
2021/06/14 04:32:18;;;;;;;2.92;2.60;;;;;;;21.77;56.16;99273.33;1801935;78;21149;-70
2021/06/14 04:34:45;;;;;;;4.03;2.67;;;;;;;21.79;56.06;99272.53;1817847;77;21413;-70
2021/06/14 04:37:11;;;;;;;3.12;2.70;;;;;;;21.80;55.90;99274.96;1822093;77;21048;-71
2021/06/14 04:39:38;;;;;;;3.47;2.55;;;;;;;21.82;56.16;99271.20;1814081;78;21033;-70
2021/06/14 04:42:06;;;;;;;4.47;2.87;;;;;;;21.83;56.25;99270.12;1805900;77;21013;-70
2021/06/14 04:44:32;;;;;;;3.00;2.70;;;;;;;21.85;56.08;99271.52;1793408;78;21106;-70
2021/06/14 04:46:59;;;;;;;3.17;2.50;;;;;;;21.87;55.84;99285.59;1819893;77;21021;-70
2021/06/14 04:49:25;;;;;;;3.12;2.83;;;;;;;21.91;56.05;99295.38;1802603;77;21576;-69
2021/06/14 04:51:52;;;;;;;4.70;2.62;;;;;;;21.94;55.70;99294.34;1801049;78;21096;-70
2021/06/14 04:54:18;;;;;;;3.92;2.70;;;;;;;21.97;55.74;99297.88;1817529;78;21060;-71
2021/06/14 04:56:45;;;;;;;4.33;2.85;;;;;;;22.00;55.51;99293.86;1828233;77;21749;-72
2021/06/14 04:59:12;;;;;;;3.20;2.90;;;;;;;22.02;55.59;99294.42;1824314;77;21045;-70
2021/06/14 05:01:38;;;;;;;3.02;2.72;;;;;;;22.06;55.67;99305.52;1786955;78;21604;-70
2021/06/14 05:04:04;;;;;;;5.00;2.72;;;;;;;22.05;55.61;99297.95;1813899;77;21022;-70
2021/06/14 05:06:31;;;;;;;4.00;2.75;;;;;;;22.08;55.61;99294.75;1808851;77;21504;-70
2021/06/14 05:08:58;;;;;;;3.15;2.60;;;;;;;22.12;55.60;99305.88;1824755;77;21139;-69
2021/06/14 05:11:24;;;;;;;3.40;2.90;;;;;;;22.16;55.75;99300.24;1812607;77;21488;-70
2021/06/14 05:13:50;;;;;;;3.10;2.83;;;;;;;22.18;55.79;99306.21;1818418;77;21520;-70
2021/06/14 05:16:17;;;;;;;4.85;2.87;;;;;;;22.21;55.65;99312.45;1809669;77;21076;-70
2021/06/14 05:18:43;;;;;;;3.22;2.92;;;;;;;22.24;55.90;99316.00;1801700;77;21029;-70
2021/06/14 05:21:10;;;;;;;3.98;2.67;;;;;;;22.27;56.08;99318.76;1805766;77;21116;-70
2021/06/14 05:23:36;;;;;;;5.05;2.65;;;;;;;22.28;56.08;99323.11;1811256;77;21720;-70
2021/06/14 05:26:03;;;;;;;2.77;2.55;;;;;;;22.30;56.16;99329.08;1818198;77;21036;-71
2021/06/14 05:28:31;;;;;;;5.87;3.10;;;;;;;22.33;55.74;99328.58;1808194;77;21103;-71
2021/06/14 05:31:01;;;;;;;2.85;2.55;;;;;;;22.35;55.67;99326.44;1812978;77;21026;-70
2021/06/14 05:33:29;;;;;;;3.98;2.90;;;;;;;22.37;55.92;99327.80;1814254;77;21165;-70
2021/06/14 05:35:56;;;;;;;6.17;3.00;;;;;;;22.42;55.78;99328.38;1807792;77;21588;-70
2021/06/14 05:38:22;;;;;;;4.92;3.05;;;;;;;22.45;55.69;99333.84;1808703;77;21090;-69
2021/06/14 05:40:48;;;;;;;5.15;2.80;;;;;;;22.48;56.10;99330.05;1817200;77;21057;-69
2021/06/14 05:43:15;;;;;;;5.33;2.95;;;;;;;22.53;56.50;99334.17;1810953;77;21092;-71
2021/06/14 05:45:41;;;;;;;5.65;3.30;;;;;;;22.57;57.18;99323.66;1813183;77;21764;-70
2021/06/14 05:48:09;;;;;;;5.15;3.10;;;;;;;22.62;57.46;99323.70;1808823;77;21053;-71
2021/06/14 05:50:36;;;;;;;3.72;3.20;;;;;;;22.66;57.42;99322.66;1817730;77;21013;-69
2021/06/14 05:53:02;;;;;;;4.47;3.00;;;;;;;22.73;57.69;99325.95;1809067;77;21046;-69
2021/06/14 05:55:29;;;;;;;17.77;10.38;;;;;;;22.79;57.99;99330.33;1805198;77;21054;-71
2021/06/14 05:57:56;;;;;;;11.48;7.28;;;;;;;22.87;58.17;99335.28;1811512;77;21561;-71
2021/06/14 06:00:23;;;;;;;7.58;5.33;;;;;;;22.95;57.75;99333.98;1776180;79;22046;-72
2021/06/14 06:02:49;;;;;;;7.12;5.10;;;;;;;23.00;57.51;99334.55;1790508;77;21008;-72
2021/06/14 06:05:19;;;;;;;6.85;4.80;;;;;;;23.05;56.81;99330.57;1817078;77;21065;-71
2021/06/14 06:07:45;;;;;;;5.70;4.37;;;;;;;23.13;56.67;99334.14;1770992;79;21155;-71
2021/06/14 06:10:12;;;;;;;5.20;3.83;;;;;;;23.18;56.21;99342.31;1815277;78;21127;-72
2021/06/14 06:12:39;;;;;;;4.58;3.72;;;;;;;23.23;55.92;99354.52;1811557;78;21056;-71
2021/06/14 06:15:14;;;;;;;5.03;4.37;;;;;;;23.29;55.79;99348.59;1805740;77;21010;-74
2021/06/14 06:17:41;;;;;;;4.95;3.87;;;;;;;23.34;55.66;99355.41;1803890;77;21009;-71
2021/06/14 06:20:08;;;;;;;4.75;3.85;;;;;;;23.35;56.11;99353.80;1739919;82;21127;-72
2021/06/14 06:22:35;;;;;;;5.58;4.28;;;;;;;23.41;56.48;99351.10;1809016;78;21176;-67
2021/06/14 06:25:10;;;;;;;5.53;3.40;;;;;;;23.47;56.71;99352.24;1816191;78;21573;-68
2021/06/14 06:27:37;;;;;;;4.72;3.67;;;;;;;23.52;56.81;99358.22;1801122;78;21073;-68
2021/06/14 06:30:05;;;;;;;6.70;3.52;;;;;;;23.58;56.73;99359.88;1819287;77;21061;-68
2021/06/14 06:32:32;;;;;;;3.52;3.15;;;;;;;23.63;56.56;99365.34;1804791;77;21042;-68
2021/06/14 06:34:58;;;;;;;5.05;2.95;;;;;;;23.69;56.35;99365.62;1806624;77;22695;-68
2021/06/14 06:37:25;;;;;;;3.70;3.37;;;;;;;23.77;56.20;99367.57;1789994;78;21089;-74
2021/06/14 06:39:51;;;;;;;6.53;3.45;;;;;;;23.83;55.96;99369.25;1785872;78;21081;-71
2021/06/14 06:42:18;;;;;;;7.35;3.45;;;;;;;23.90;55.94;99367.92;1798040;78;20989;-72
2021/06/14 06:44:45;;;;;;;4.92;3.58;;;;;;;23.96;55.94;99366.61;1812788;78;21527;-72
2021/06/14 06:47:11;;;;;;;3.85;3.37;;;;;;;24.00;56.00;99364.98;1816829;77;21092;-70
2021/06/14 06:49:39;;;;;;;4.83;3.80;;;;;;;24.03;56.00;99368.51;1807702;78;21061;-71
2021/06/14 06:52:07;;;;;;;6.50;4.45;;;;;;;24.09;56.09;99374.25;1809229;78;21493;-69
2021/06/14 06:54:33;;;;;;;5.92;3.90;;;;;;;24.12;56.32;99377.22;1801873;77;21077;-70
2021/06/14 06:57:00;;;;;;;6.97;4.12;;;;;;;24.17;56.50;99380.52;1804676;77;21084;-75
2021/06/14 06:59:26;;;;;;;6.22;4.30;;;;;;;24.21;56.71;99378.89;1814380;78;21072;-74
2021/06/14 07:01:53;;;;;;;4.90;3.95;;;;;;;24.25;56.67;99385.41;1816077;77;21064;-73
2021/06/14 07:04:19;;;;;;;5.15;3.80;;;;;;;24.32;56.47;99387.89;1765482;78;21041;-74
2021/06/14 07:06:46;;;;;;;5.33;3.45;;;;;;;24.36;56.37;99391.70;1811710;78;21040;-75
2021/06/14 07:09:13;;;;;;;4.17;3.70;;;;;;;24.40;56.23;99395.51;1806547;78;21381;-74
2021/06/14 07:11:39;;;;;;;6.58;3.92;;;;;;;24.44;56.17;99399.31;1814997;78;21106;-75
2021/06/14 07:16:31;;;;;;;5.50;3.90;;;;;;;24.55;56.08;99397.48;1788132;79;22404;-75
2021/06/14 07:18:58;;;;;;;6.97;3.83;;;;;;;24.49;56.04;99408.00;1732835;81;21615;-76
2021/06/14 07:21:24;;;;;;;4.08;3.65;;;;;;;24.56;55.91;99414.03;1738384;81;21142;-70
2021/06/14 07:23:51;;;;;;;4.72;3.37;;;;;;;24.60;55.81;99411.59;1750326;80;20985;-75
2021/06/14 07:26:17;;;;;;;4.90;3.80;;;;;;;24.64;55.72;99408.61;1720791;81;21045;-69
2021/06/14 07:28:46;;;;;;;4.90;3.80;;;;;;;24.70;55.66;99407.53;1735642;80;21558;-72
2021/06/14 07:31:12;;;;;;;4.28;3.85;;;;;;;24.75;55.60;99412.98;1686343;80;21113;-76
2021/06/14 07:33:39;;;;;;;6.95;3.87;;;;;;;24.81;55.46;99418.69;1706734;82;21110;-76
2021/06/14 07:36:07;;;;;;;4.00;3.50;;;;;;;24.87;55.43;99407.28;1698876;82;21094;-74
2021/06/14 07:38:34;;;;;;;9.13;3.90;;;;;;;24.93;55.32;99419.78;1701114;82;22019;-72
2021/06/14 07:41:01;;;;;;;5.08;3.80;;;;;;;24.98;55.13;99419.80;1704365;82;22388;-74
2021/06/14 07:43:27;;;;;;;4.65;3.52;;;;;;;25.03;54.96;99419.77;1708650;82;21595;-77
2021/06/14 07:45:54;;;;;;;6.28;3.90;;;;;;;25.08;54.80;99429.30;1700639;82;21545;-77
2021/06/14 07:48:24;;;;;;;5.35;3.92;;;;;;;25.12;54.67;99424.95;1700652;82;21599;-76
2021/06/14 07:50:52;;;;;;;4.80;4.00;;;;;;;25.16;54.62;99427.94;1706325;82;21025;-77
2021/06/14 07:53:19;;;;;;;4.05;3.40;;;;;;;25.21;54.86;99423.88;1680117;82;21117;-79
2021/06/14 07:55:46;;;;;;;4.08;3.67;;;;;;;25.25;54.96;99426.89;1718669;82;21006;-76
2021/06/14 07:58:13;;;;;;;4.10;3.47;;;;;;;25.28;54.94;99427.17;1705889;82;21306;-76
2021/06/14 08:00:41;;;;;;;5.03;3.77;;;;;;;25.33;54.79;99429.06;1713042;82;21064;-75
2021/06/14 08:03:08;;;;;;;5.67;3.87;;;;;;;25.38;54.69;99432.30;1713172;82;21066;-77
2021/06/14 08:05:35;;;;;;;3.85;3.52;;;;;;;25.41;54.68;99429.05;1706760;82;21112;-76
2021/06/14 08:08:02;;;;;;;4.87;3.62;;;;;;;25.46;54.57;99431.22;1710073;82;21115;-79
2021/06/14 08:10:28;;;;;;;3.58;3.27;;;;;;;25.53;54.49;99434.20;1709618;82;22216;-75
2021/06/14 08:12:56;;;;;;;3.92;3.52;;;;;;;25.56;54.40;99433.66;1706102;82;21093;-76
2021/06/14 08:15:29;;;;;;;4.15;3.75;;;;;;;25.59;54.32;99429.82;1708251;82;21037;-76
2021/06/14 08:18:07;;;;;;;4.08;3.67;;;;;;;25.63;54.23;99429.56;1701052;82;21096;-71
2021/06/14 08:20:33;;;;;;;4.20;3.70;;;;;;;25.66;54.09;99430.36;1705711;82;21043;-70
2021/06/14 08:25:37;;;;;;;4.05;3.72;;;;;;;25.75;53.98;99432.50;1664251;85;21133;-70
2021/06/14 08:28:04;;;;;;;4.30;3.90;;;;;;;25.77;53.72;99443.41;1697323;82;21025;-69
2021/06/14 08:30:31;;;;;;;4.37;3.83;;;;;;;25.79;53.81;99439.86;1693256;82;21060;-69
2021/06/14 08:32:58;;;;;;;4.85;3.47;;;;;;;25.84;53.69;99443.09;1680625;84;21030;-69
2021/06/14 08:35:27;;;;;;;6.00;3.72;;;;;;;25.88;53.59;99445.53;1666930;84;21134;-70
2021/06/14 08:37:54;;;;;;;4.70;4.17;;;;;;;25.92;53.42;99452.08;1673063;84;21573;-75
2021/06/14 08:40:24;;;;;;;3.87;3.45;;;;;;;25.96;53.23;99448.27;1673272;84;21101;-76
2021/06/14 08:42:51;;;;;;;3.70;3.40;;;;;;;26.02;53.06;99458.03;1678223;83;21070;-77
2021/06/14 08:45:18;;;;;;;4.15;3.60;;;;;;;26.07;53.09;99463.47;1677781;83;21542;-73
2021/06/14 08:47:46;;;;;;;5.37;3.90;;;;;;;26.12;53.13;99466.19;1675085;83;21951;-68
2021/06/14 08:50:15;;;;;;;3.95;3.58;;;;;;;26.16;52.92;99471.34;1676185;84;21077;-68
2021/06/14 08:52:42;;;;;;;4.08;3.35;;;;;;;26.22;52.84;99476.22;1676018;83;21069;-68
2021/06/14 08:55:11;;;;;;;3.37;3.08;;;;;;;26.26;52.62;99476.73;1677628;83;21078;-67
2021/06/14 08:57:37;;;;;;;4.05;3.50;;;;;;;26.32;52.59;99480.25;1675820;84;21120;-69
2021/06/14 09:00:07;;;;;;;4.42;3.02;;;;;;;26.37;52.53;99485.69;1668851;83;21124;-70
2021/06/14 09:02:34;;;;;;;3.70;3.40;;;;;;;26.42;52.91;99480.76;1675578;83;21070;-69
2021/06/14 09:05:00;;;;;;;3.72;3.33;;;;;;;26.47;52.57;99488.36;1681848;83;21062;-69
2021/06/14 09:07:29;;;;;;;4.10;3.70;;;;;;;26.51;52.56;99491.90;1678640;83;21071;-70
2021/06/14 09:09:55;;;;;;;4.95;3.52;;;;;;;26.54;52.51;99498.97;1689497;83;21537;-69
2021/06/14 09:12:22;;;;;;;4.55;3.62;;;;;;;26.57;52.03;99498.95;1663685;83;21201;-71
2021/06/14 09:14:49;;;;;;;3.95;3.65;;;;;;;26.59;51.78;99507.68;1662921;83;21130;-69
2021/06/14 09:17:17;;;;;;;3.80;3.50;;;;;;;26.62;52.02;99508.50;1685899;84;21045;-70
2021/06/14 09:19:50;;;;;;;3.50;3.20;;;;;;;26.64;52.08;99507.66;1678442;84;21635;-70
2021/06/14 09:22:23;;;;;;;5.83;3.33;;;;;;;26.68;52.38;99510.90;1680037;84;21178;-69
2021/06/14 09:25:01;;;;;;;4.05;3.33;;;;;;;26.70;52.50;99509.82;1654261;85;21171;-68
2021/06/14 09:27:43;;;;;;;3.42;3.12;;;;;;;26.72;52.26;99510.35;1675474;83;21593;-70
2021/06/14 09:30:22;;;;;;;;;;;;;;;26.73;52.35;99501.88;1670935;83;21080;-73
2021/06/14 09:32:58;;;;;;;3.67;3.15;;;;;;;26.75;52.12;99507.86;1679253;83;20492;-71
2021/06/14 09:35:34;;;;;;;3.67;3.22;;;;;;;26.69;52.25;99507.63;1676765;83;21545;-69
2021/06/14 09:38:17;;;;;;;4.83;3.45;;;;;;;26.72;52.24;99506.27;1670486;83;22345;-70
2021/06/14 09:40:50;;;;;;;4.42;3.42;;;;;;;26.74;52.25;99505.44;1678159;83;21121;-70
2021/06/14 09:43:37;;;;;;;3.75;3.45;;;;;;;26.76;52.22;99508.14;1671101;83;21076;-74
2021/06/14 09:46:08;;;;;;;3.98;3.67;;;;;;;26.78;52.28;99508.67;1683771;84;21142;-69
2021/06/14 09:48:37;;;;;;;4.37;3.25;;;;;;;26.80;52.16;99506.47;1682358;83;21572;-68
2021/06/14 09:51:05;;;;;;;4.05;3.70;;;;;;;26.83;51.74;99504.56;1670119;83;21097;-69
2021/06/14 09:53:35;;;;;;;3.98;3.67;;;;;;;26.85;51.77;99504.28;1675564;83;21283;-69
2021/06/14 09:56:29;;;;;;;3.72;3.42;;;;;;;26.87;51.96;99514.35;1633996;85;21086;-69
2021/06/14 09:58:58;;;;;;;3.70;3.40;;;;;;;26.89;51.93;99513.52;1673059;83;21552;-71
2021/06/14 10:01:32;;;;;;;5.28;3.62;;;;;;;26.91;51.97;99515.94;1676183;83;21510;-73
2021/06/14 10:04:11;;;;;;;4.92;3.58;;;;;;;26.93;51.76;99517.86;1679849;83;21748;-69
2021/06/14 10:06:42;;;;;;;4.10;3.70;;;;;;;26.97;51.97;99516.20;1674097;83;21117;-68
2021/06/14 10:09:14;;;;;;;4.00;3.60;;;;;;;27.00;52.04;99523.23;1674303;84;21635;-73
2021/06/14 10:11:43;;;;;;;7.15;3.92;;;;;;;27.03;51.91;99519.96;1677995;83;22043;-70
2021/06/14 10:14:13;;;;;;;3.98;3.65;;;;;;;27.06;51.80;99515.32;1680893;83;21561;-71
2021/06/14 10:16:41;;;;;;;4.30;3.33;;;;;;;27.11;52.09;99525.36;1669699;84;21116;-72
2021/06/14 10:19:10;;;;;;;3.75;3.08;;;;;;;27.16;51.96;99519.05;1672607;83;21053;-71
2021/06/14 10:21:40;;;;;;;5.00;4.03;;;;;;;27.21;51.61;99522.56;1666043;83;21136;-71
2021/06/14 10:24:10;;;;;;;3.70;3.37;;;;;;;27.28;51.43;99510.56;1678193;83;21034;-70
2021/06/14 10:26:42;;;;;;;3.70;3.40;;;;;;;27.33;51.37;99520.86;1679066;84;21161;-73
2021/06/14 10:29:14;;;;;;;3.80;3.50;;;;;;;27.39;51.09;99512.92;1668694;83;22176;-71
2021/06/14 10:31:43;;;;;;;4.00;3.60;;;;;;;27.46;50.88;99518.84;1672341;85;21026;-70
2021/06/14 10:34:11;;;;;;;3.58;3.27;;;;;;;27.52;50.47;99507.34;1674621;83;21098;-67
2021/06/14 10:36:39;;;;;;;4.05;3.75;;;;;;;27.58;49.94;99521.23;1674127;83;21093;-69
2021/06/14 10:39:07;;;;;;;4.37;3.62;;;;;;;27.67;49.80;99519.23;1740766;79;21037;-67
2021/06/14 10:41:33;;;;;;;6.85;3.90;;;;;;;27.75;49.35;99517.25;1714904;82;21801;-68
2021/06/14 10:44:00;;;;;;;7.22;4.95;;;;;;;27.80;49.00;99517.20;1738550;80;21039;-69
2021/06/14 10:46:26;;;;;;;5.92;3.92;;;;;;;27.85;48.94;99514.41;1741824;80;21058;-67
2021/06/14 10:49:00;;;;;;;5.47;3.62;;;;;;;27.92;48.68;99517.66;1739206;81;21032;-69
2021/06/14 10:51:27;;;;;;;3.77;3.40;;;;;;;28.01;48.69;99519.22;1738523;80;21093;-70
2021/06/14 10:54:19;;;;;;;3.77;3.25;;;;;;;28.10;48.72;99508.45;1740072;82;21778;-66
2021/06/14 10:56:43;;;;;;;3.90;3.45;;;;;;;28.21;48.43;99509.97;1736745;80;21139;-67
2021/06/14 10:59:13;;;;;;;4.20;3.55;;;;;;;28.29;47.90;99513.42;1739506;82;21028;-69
2021/06/14 11:01:42;;;;;;;3.92;3.33;;;;;;;28.38;47.46;99513.05;1740929;80;21064;-70
2021/06/14 11:04:09;;;;;;;3.90;3.50;;;;;;;28.47;46.67;99501.46;1740801;80;21128;-70
2021/06/14 11:06:37;;;;;;;4.15;2.87;;;;;;;28.53;46.02;99498.95;1742124;80;21184;-70
2021/06/14 11:09:12;;;;;;;3.62;3.02;;;;;;;28.58;46.06;99501.06;1742172;82;21497;-67
2021/06/14 11:11:54;;;;;;;3.92;2.83;;;;;;;28.63;46.17;99505.10;1725063;82;21045;-71
2021/06/14 11:14:43;;;;;;;4.10;3.00;;;;;;;28.68;46.36;99503.41;1739345;82;21026;-75
2021/06/14 11:17:28;;;;;;;3.52;3.22;;;;;;;28.73;46.24;99510.98;1732834;82;20993;-71
2021/06/14 11:20:07;;;;;;;5.10;3.58;;;;;;;28.76;46.43;99501.38;1741271;80;21990;-71
2021/06/14 11:22:47;;;;;;;6.15;3.00;;;;;;;28.79;46.22;99504.33;1741997;82;20985;-68
2021/06/14 11:25:30;;;;;;;3.47;3.17;;;;;;;28.82;46.12;99512.52;1677020;85;21068;-73
2021/06/14 11:28:00;;;;;;;3.98;3.05;;;;;;;28.82;46.08;99502.39;1668025;84;21051;-76
2021/06/14 11:30:39;;;;;;;3.72;3.40;;;;;;;28.79;45.99;99502.16;1725411;80;21085;-69
2021/06/14 11:33:08;;;;;;;4.50;3.00;;;;;;;28.75;45.89;99515.59;1728023;82;21070;-69
2021/06/14 11:35:34;;;;;;;7.45;3.35;;;;;;;28.70;46.02;99507.46;1740971;80;21093;-69
2021/06/14 11:38:04;;;;;;;3.45;3.22;;;;;;;28.71;46.05;99505.56;1737256;82;21085;-72
2021/06/14 11:40:35;;;;;;;3.60;3.27;;;;;;;28.69;45.89;99503.12;1736247;81;21512;-71
2021/06/14 11:43:13;;;;;;;4.08;3.33;;;;;;;28.70;45.87;99501.99;1742282;81;21030;-72
2021/06/14 11:45:43;;;;;;;5.30;3.83;;;;;;;28.70;45.90;99493.80;1718406;80;21087;-69
2021/06/14 11:48:29;;;;;;;5.58;3.85;;;;;;;28.70;45.88;99498.45;1744947;81;21060;-76